createdAt,value
2023-02-13T00:02:17.344Z,72.62
2023-02-13T00:04:48.124Z,72.93
2023-02-13T00:07:18.426Z,72.30
2023-02-13T00:09:48.847Z,72.30
2023-02-13T00:12:19.938Z,72.67
2023-02-13T00:14:50.980Z,72.32
2023-02-13T00:17:21.345Z,72.27
2023-02-13T00:20:09.200Z,73.01
2023-02-13T00:22:54.466Z,72.08
2023-02-13T00:25:24.752Z,72.08
2023-02-13T00:27:55.730Z,72.58
2023-02-13T00:30:26.138Z,72.58
2023-02-13T00:32:56.495Z,72.04
2023-02-13T00:35:26.752Z,72.28
2023-02-13T00:37:57.780Z,71.89
2023-02-13T00:40:28.127Z,72.09
2023-02-13T00:42:58.354Z,72.12
2023-02-13T00:45:28.721Z,72.15
2023-02-13T00:47:59.298Z,72.41
2023-02-13T00:50:29.709Z,72.41
2023-02-13T00:53:00.410Z,72.68
2023-02-13T00:55:30.643Z,72.68
2023-02-13T00:58:01.572Z,72.40
2023-02-13T01:00:32.201Z,72.37
2023-02-13T01:03:02.836Z,72.37
2023-02-13T01:05:35.193Z,72.24
2023-02-13T01:08:06.021Z,72.55
2023-02-13T01:10:38.874Z,72.75
2023-02-13T01:13:12.524Z,72.68
2023-02-13T01:15:43.454Z,72.91
2023-02-13T01:18:16.441Z,73.31
2023-02-13T01:21:07.359Z,72.93
2023-02-13T01:23:39.332Z,72.80
2023-02-13T01:26:12.707Z,72.89
2023-02-13T01:28:43.031Z,72.70
2023-02-13T01:31:34.741Z,72.92
2023-02-13T01:34:05.724Z,72.84
2023-02-13T01:36:36.613Z,72.92
2023-02-13T01:39:07.188Z,72.65
2023-02-13T01:41:38.469Z,72.44
2023-02-13T01:44:44.664Z,73.26
2023-02-13T01:47:20.621Z,73.09
2023-02-13T01:49:54.181Z,73.09
2023-02-13T01:52:25.033Z,72.94
2023-02-13T01:54:55.441Z,73.64
2023-02-13T01:57:29.002Z,73.64
2023-02-13T02:00:08.263Z,73.53
2023-02-13T02:02:41.893Z,73.78
2023-02-13T02:05:13.680Z,74.06
2023-02-13T02:07:44.891Z,74.14
2023-02-13T02:10:18.940Z,74.33
2023-02-13T02:15:45.993Z,74.16
2023-02-13T02:18:19.411Z,74.11
2023-02-13T02:21:11.322Z,73.60
2023-02-13T02:23:48.130Z,73.91
2023-02-13T02:26:41.108Z,74.26
2023-02-13T02:29:40.592Z,74.26
2023-02-13T02:32:34.635Z,73.08
2023-02-13T02:38:24.475Z,73.05
2023-02-13T02:46:55.994Z,72.16
2023-02-13T02:49:34.352Z,73.40
2023-02-13T02:52:10.285Z,74.54
2023-02-13T02:54:43.671Z,74.23
2023-02-13T02:57:16.971Z,73.89
2023-02-13T02:59:49.345Z,73.89
2023-02-13T03:02:21.577Z,74.55
2023-02-13T03:04:55.136Z,75.36
2023-02-13T03:07:25.484Z,74.79
2023-02-13T03:10:04.706Z,74.79
2023-02-13T03:15:29.306Z,75.42
2023-02-13T03:18:00.377Z,75.42
2023-02-13T03:24:05.573Z,73.84
2023-02-13T03:26:56.616Z,74.16
2023-02-13T03:29:35.540Z,75.75
2023-02-13T03:32:20.172Z,76.66
2023-02-13T03:34:53.887Z,76.66
2023-02-13T03:37:30.612Z,76.59
2023-02-13T03:40:07.129Z,76.34
2023-02-13T03:42:43.372Z,77.14
2023-02-13T03:45:16.649Z,75.96
2023-02-13T03:47:50.455Z,75.80
2023-02-13T03:50:21.949Z,75.92
2023-02-13T03:53:18.952Z,76.03
2023-02-13T03:55:50.008Z,75.82
2023-02-13T03:58:25.937Z,75.97
2023-02-13T04:00:59.900Z,75.97
2023-02-13T04:04:06.630Z,76.67
2023-02-13T04:06:40.434Z,76.67
2023-02-13T04:09:11.135Z,76.25
2023-02-13T04:11:59.791Z,76.57
2023-02-13T04:14:35.562Z,76.57
2023-02-13T04:17:26.570Z,76.50
2023-02-13T04:20:17.785Z,76.79
2023-02-13T04:22:49.457Z,76.79
2023-02-13T04:25:21.445Z,76.31
2023-02-13T04:27:52.205Z,76.31
2023-02-13T04:30:23.788Z,76.58
2023-02-13T04:32:54.679Z,76.58
2023-02-13T04:35:25.124Z,76.35
2023-02-13T04:37:56.051Z,76.94
2023-02-13T04:40:26.371Z,76.90
2023-02-13T04:42:57.564Z,76.79
2023-02-13T04:45:28.460Z,75.84
2023-02-13T04:47:59.854Z,75.64
2023-02-13T04:50:30.129Z,75.75
2023-02-13T04:53:00.773Z,76.02
2023-02-13T04:55:34.869Z,76.59
2023-02-13T04:58:05.405Z,76.59
2023-02-13T05:00:36.340Z,77.09
2023-02-13T05:03:10.289Z,77.09
2023-02-13T05:05:41.215Z,76.69
2023-02-13T05:08:12.441Z,77.66
2023-02-13T05:10:42.767Z,77.66
2023-02-13T05:13:13.789Z,75.03
2023-02-13T05:15:44.285Z,76.54
2023-02-13T05:18:14.941Z,75.50
2023-02-13T05:20:45.748Z,75.94
2023-02-13T05:23:16.692Z,75.55
2023-02-13T05:25:47.167Z,75.55
2023-02-13T05:28:18.117Z,75.25
2023-02-13T05:30:48.532Z,75.18
2023-02-13T05:33:20.236Z,75.18
2023-02-13T05:35:51.290Z,75.47
2023-02-13T05:38:22.335Z,74.91
2023-02-13T05:40:52.703Z,74.96
2023-02-13T05:43:27.018Z,74.96
2023-02-13T05:46:10.498Z,74.88
2023-02-13T05:48:41.548Z,74.88
2023-02-13T05:51:12.390Z,74.58
2023-02-13T05:53:42.927Z,74.61
2023-02-13T05:56:13.404Z,74.60
2023-02-13T05:58:44.037Z,74.38
2023-02-13T06:01:15.300Z,74.78
2023-02-13T06:03:49.612Z,73.99
2023-02-13T06:06:20.567Z,74.14
2023-02-13T06:12:17.806Z,71.97
2023-02-13T06:14:48.551Z,72.70
2023-02-13T06:17:18.968Z,72.46
2023-02-13T06:19:49.561Z,72.46
2023-02-13T06:22:20.242Z,72.87
2023-02-13T06:24:50.843Z,72.38
2023-02-13T06:27:21.285Z,72.36
2023-02-13T06:29:51.778Z,72.40
2023-02-13T06:32:22.966Z,72.30
2023-02-13T06:34:53.380Z,71.58
2023-02-13T06:37:23.790Z,71.58
2023-02-13T06:39:54.241Z,70.50
2023-02-13T06:42:25.152Z,72.17
2023-02-13T06:44:55.769Z,72.33
2023-02-13T06:47:26.410Z,71.57
2023-02-13T06:49:56.857Z,71.97
2023-02-13T06:52:27.595Z,70.58
2023-02-13T06:54:59.833Z,70.02
2023-02-13T06:57:30.703Z,69.86
2023-02-13T07:00:02.231Z,69.47
2023-02-13T07:02:33.798Z,69.42
2023-02-13T07:05:04.116Z,69.42
2023-02-13T07:07:38.234Z,69.00
2023-02-13T07:10:12.421Z,69.34
2023-02-13T07:12:56.791Z,68.99
2023-02-13T07:15:18.195Z,69.30
2023-02-13T07:17:52.470Z,68.67
2023-02-13T07:20:24.683Z,68.86
2023-02-13T07:23:05.199Z,67.67
2023-02-13T07:25:36.102Z,66.70
2023-02-13T07:28:07.368Z,66.70
2023-02-13T07:30:37.999Z,65.05
2023-02-13T07:33:12.157Z,63.38
2023-02-13T07:35:47.673Z,64.59
2023-02-13T07:38:19.111Z,63.62
2023-02-13T07:40:50.088Z,62.66
2023-02-13T07:43:20.875Z,61.49
2023-02-13T07:45:52.601Z,61.70
2023-02-13T07:48:29.761Z,62.21
2023-02-13T07:51:05.468Z,62.68
2023-02-13T07:53:36.634Z,60.16
2023-02-13T07:56:09.593Z,60.16
2023-02-13T07:58:40.155Z,60.53
2023-02-13T08:01:12.795Z,60.53
2023-02-13T08:03:50.113Z,59.92
2023-02-13T08:06:30.617Z,61.91
2023-02-13T08:09:41.073Z,61.91
2023-02-13T08:11:31.514Z,62.37
2023-02-13T08:14:04.844Z,61.79
2023-02-13T08:16:46.790Z,61.99
2023-02-13T08:19:28.202Z,61.99
2023-02-13T08:22:00.740Z,60.22
2023-02-13T08:24:35.677Z,60.60
2023-02-13T08:27:06.288Z,61.10
2023-02-13T08:29:40.170Z,60.62
2023-02-13T08:33:14.489Z,59.68
2023-02-13T08:35:36.458Z,58.46
2023-02-13T08:37:41.091Z,58.46
2023-02-13T08:40:27.997Z,60.47
2023-02-13T08:42:54.069Z,58.95
2023-02-13T08:45:21.477Z,58.95
2023-02-13T08:47:54.390Z,60.02
2023-02-13T08:50:26.871Z,60.02
2023-02-13T08:53:01.886Z,57.26
2023-02-13T08:55:32.167Z,56.29
2023-02-13T08:58:04.710Z,55.85
2023-02-13T09:00:36.881Z,56.06
2023-02-13T09:03:11.014Z,56.06
2023-02-13T09:05:48.555Z,56.08
2023-02-13T09:08:20.205Z,53.53
2023-02-13T09:11:01.394Z,54.94
2023-02-13T09:13:38.998Z,52.88
2023-02-13T09:16:13.119Z,51.22
2023-02-13T09:18:45.657Z,49.92
2023-02-13T09:21:41.277Z,51.45
2023-02-13T09:24:17.141Z,50.64
2023-02-13T09:26:56.711Z,50.55
2023-02-13T09:29:28.346Z,50.55
2023-02-13T09:31:59.248Z,50.80
2023-02-13T09:34:29.969Z,51.60
2023-02-13T09:37:08.410Z,48.97
2023-02-13T09:39:41.921Z,47.52
2023-02-13T09:42:18.473Z,47.63
2023-02-13T09:44:52.182Z,46.04
2023-02-13T09:47:34.883Z,46.04
2023-02-13T09:50:34.198Z,46.34
2023-02-13T09:53:07.078Z,46.34
2023-02-13T09:56:00.167Z,41.33
2023-02-13T09:58:39.535Z,44.49
2023-02-13T10:01:16.528Z,44.14
2023-02-13T10:03:57.353Z,41.37
2023-02-13T10:06:39.599Z,43.08
2023-02-13T10:09:13.670Z,42.62
2023-02-13T10:12:01.892Z,41.17
2023-02-13T10:18:14.399Z,40.35
2023-02-13T10:20:50.350Z,40.45
2023-02-13T10:23:46.967Z,40.45
2023-02-13T10:26:39.015Z,42.06
2023-02-13T10:32:01.213Z,42.81
2023-02-13T10:34:53.411Z,43.67
2023-02-13T10:37:26.245Z,42.59
2023-02-13T10:39:57.436Z,44.11
2023-02-13T10:42:45.375Z,45.48
2023-02-13T10:45:26.773Z,44.86
2023-02-13T10:48:16.203Z,44.59
2023-02-13T10:51:01.196Z,44.59
2023-02-13T10:53:55.796Z,46.50
2023-02-13T10:56:56.208Z,45.34
2023-02-13T10:59:46.166Z,45.33
2023-02-13T11:02:24.027Z,45.04
2023-02-13T11:05:00.870Z,45.04
2023-02-13T11:07:42.505Z,44.38
2023-02-13T11:10:28.473Z,44.91
2023-02-13T11:13:25.410Z,44.00
2023-02-13T11:16:18.915Z,44.00
2023-02-13T11:21:34.847Z,42.70
2023-02-13T11:24:08.185Z,40.99
2023-02-13T11:26:43.324Z,40.37
2023-02-13T11:29:25.581Z,40.07
2023-02-13T11:32:16.852Z,39.78
2023-02-13T11:34:50.843Z,39.75
2023-02-13T11:37:27.705Z,39.75
2023-02-13T11:40:07.433Z,40.48
2023-02-13T11:42:41.801Z,40.48
2023-02-13T11:45:25.020Z,41.00
2023-02-13T11:47:58.823Z,41.58
2023-02-13T11:50:40.195Z,41.89
2023-02-13T11:53:22.398Z,40.82
2023-02-13T11:56:15.912Z,40.15
2023-02-13T11:58:46.888Z,38.39
2023-02-13T12:01:37.030Z,38.39
2023-02-13T12:04:22.036Z,39.12
2023-02-13T12:07:01.632Z,40.78
2023-02-13T12:09:33.102Z,41.16
2023-02-13T12:12:07.451Z,41.16
2023-02-13T12:14:46.448Z,40.94
2023-02-13T12:17:31.492Z,40.56
2023-02-13T12:19:55.214Z,40.24
2023-02-13T12:22:33.946Z,40.81
2023-02-13T12:25:32.692Z,40.81
2023-02-13T12:28:12.183Z,39.34
2023-02-13T12:31:01.032Z,39.34
2023-02-13T12:33:41.207Z,37.52
2023-02-13T12:36:17.125Z,37.95
2023-02-13T12:39:11.844Z,37.22
2023-02-13T12:42:03.285Z,37.03
2023-02-13T12:44:39.405Z,38.21
2023-02-13T12:47:18.533Z,38.21
2023-02-13T12:50:02.763Z,39.10
2023-02-13T12:52:56.969Z,39.10
2023-02-13T12:55:44.829Z,40.54
2023-02-13T12:59:07.818Z,39.70
2023-02-13T13:02:04.056Z,39.57
2023-02-13T13:04:57.403Z,38.36
2023-02-13T13:07:39.641Z,38.89
2023-02-13T13:10:51.513Z,38.89
2023-02-13T13:13:35.260Z,39.18
2023-02-13T13:16:30.127Z,39.12
2023-02-13T13:19:17.109Z,38.74
2023-02-13T13:22:02.119Z,38.50
2023-02-13T13:24:55.251Z,39.31
2023-02-13T13:27:28.568Z,39.14
2023-02-13T13:33:12.030Z,40.10
2023-02-13T13:35:45.319Z,39.91
2023-02-13T13:38:32.147Z,39.91
2023-02-13T13:41:29.740Z,41.06
2023-02-13T13:44:21.728Z,40.57
2023-02-13T13:47:05.294Z,39.45
2023-02-13T13:49:45.545Z,39.87
2023-02-13T13:52:28.055Z,39.87
2023-02-13T13:55:02.743Z,39.50
2023-02-13T13:57:45.613Z,39.42
2023-02-13T14:00:18.876Z,39.71
2023-02-13T14:02:52.722Z,40.28
2023-02-13T14:05:37.609Z,40.75
2023-02-13T14:08:28.200Z,40.28
2023-02-13T14:11:06.114Z,40.18
2023-02-13T14:13:40.654Z,40.23
2023-02-13T14:16:31.744Z,40.34
2023-02-13T14:19:02.683Z,40.34
2023-02-13T14:21:33.654Z,41.08
2023-02-13T14:24:06.927Z,41.20
2023-02-13T14:26:41.793Z,41.20
2023-02-13T14:29:17.661Z,41.84
2023-02-13T14:31:59.742Z,41.84
2023-02-13T14:34:36.685Z,42.08
2023-02-13T14:43:07.865Z,42.82
2023-02-13T14:45:58.129Z,43.17
2023-02-13T14:48:49.455Z,43.18
2023-02-13T14:51:22.619Z,43.25
2023-02-13T14:54:01.837Z,43.94
2023-02-13T14:56:33.932Z,43.42
2023-02-13T14:59:25.398Z,42.90
2023-02-13T15:02:02.235Z,42.90
2023-02-13T15:04:52.930Z,43.35
2023-02-13T15:07:57.888Z,43.05
2023-02-13T16:09:30.150Z,44.86
2023-02-13T16:12:07.422Z,44.69
2023-02-13T16:14:43.505Z,44.67
2023-02-13T16:17:40.296Z,44.42
2023-02-13T16:20:16.831Z,45.04
2023-02-13T16:22:50.562Z,44.55
2023-02-13T16:25:47.988Z,44.24
2023-02-13T16:28:21.710Z,44.33
2023-02-13T16:31:19.020Z,43.91
2023-02-13T16:33:48.057Z,43.84
2023-02-13T16:36:41.881Z,44.41
2023-02-13T16:39:19.035Z,44.19
2023-02-13T16:41:52.531Z,44.55
2023-02-13T16:44:33.811Z,44.69
2023-02-13T16:47:06.285Z,45.24
2023-02-13T16:49:38.548Z,44.85
2023-02-13T16:52:20.464Z,45.65
2023-02-13T16:55:02.639Z,45.29
2023-02-13T16:57:38.727Z,45.29
2023-02-13T17:00:25.941Z,45.92
2023-02-13T17:02:56.304Z,46.77
2023-02-13T17:05:31.586Z,47.60
2023-02-13T17:08:05.623Z,47.60
2023-02-13T17:10:41.099Z,47.57
2023-02-13T17:13:21.809Z,48.07
2023-02-13T17:16:11.839Z,47.82
2023-02-13T17:18:43.931Z,47.82
2023-02-13T17:21:14.489Z,49.98
2023-02-13T17:23:45.670Z,49.98
2023-02-13T17:26:16.986Z,50.42
2023-02-13T17:28:58.278Z,52.71
2023-02-13T17:31:31.814Z,53.45
2023-02-13T17:34:01.662Z,58.29
2023-02-13T17:36:31.684Z,58.90
2023-02-13T17:39:02.202Z,61.90
2023-02-13T17:41:33.165Z,64.69
2023-02-13T17:44:06.424Z,66.20
2023-02-13T17:46:45.173Z,69.13
2023-02-13T17:49:18.727Z,71.50
2023-02-13T17:51:50.810Z,74.31
2023-02-13T17:54:29.036Z,75.81
2023-02-13T17:57:01.834Z,76.97
2023-02-13T17:59:32.567Z,76.97
2023-02-13T18:02:11.807Z,77.46
2023-02-13T18:04:42.690Z,77.81
2023-02-13T18:07:23.082Z,77.80
2023-02-13T18:09:59.298Z,78.14
2023-02-13T18:12:33.238Z,78.14
2023-02-13T18:15:12.462Z,77.38
2023-02-13T18:17:48.722Z,78.42
2023-02-13T18:20:23.311Z,79.12
2023-02-13T18:22:53.590Z,79.87
2023-02-13T18:31:05.339Z,81.17
2023-02-13T18:33:44.304Z,80.73
2023-02-13T18:36:20.495Z,80.73
2023-02-13T18:38:57.203Z,80.96
2023-02-13T18:41:28.889Z,80.98
2023-02-13T18:44:02.054Z,80.93
2023-02-13T18:46:41.979Z,80.90
2023-02-13T18:49:10.575Z,81.67
2023-02-13T18:51:42.208Z,81.97
2023-02-13T18:57:25.664Z,82.55
2023-02-13T18:59:58.516Z,83.84
2023-02-13T19:05:17.615Z,84.81
2023-02-13T19:07:49.427Z,85.59
2023-02-13T19:10:22.189Z,85.59
2023-02-13T19:12:56.138Z,85.90
2023-02-13T19:15:29.981Z,87.52
2023-02-13T19:18:04.399Z,88.55
2023-02-13T19:20:35.247Z,87.92
2023-02-13T19:23:05.778Z,88.96
2023-02-13T19:25:41.367Z,89.88
2023-02-13T19:28:11.718Z,90.17
2023-02-13T19:30:42.378Z,90.17
2023-02-13T19:33:13.319Z,90.56
2023-02-13T19:35:43.983Z,90.16
2023-02-13T19:38:16.702Z,90.39
2023-02-13T19:40:49.813Z,90.94
2023-02-13T19:43:22.331Z,91.93
2023-02-13T19:45:52.965Z,91.93
2023-02-13T19:48:27.087Z,93.87
2023-02-13T19:50:58.183Z,94.58
2023-02-13T19:53:38.019Z,95.18
2023-02-13T19:56:21.331Z,95.18
2023-02-13T19:58:54.427Z,95.77
2023-02-13T20:01:33.477Z,96.11
2023-02-13T20:04:04.196Z,96.90
2023-02-13T20:06:44.859Z,96.98
2023-02-13T20:09:16.605Z,96.98
2023-02-13T20:11:48.496Z,97.22
2023-02-13T20:14:23.633Z,97.27
2023-02-13T20:16:54.317Z,97.27
2023-02-13T20:19:25.631Z,98.26
2023-02-13T20:21:57.272Z,98.69
2023-02-13T20:24:28.241Z,98.77
2023-02-13T20:27:00.438Z,98.32
2023-02-13T20:29:31.203Z,97.94
2023-02-13T20:32:02.705Z,97.20
2023-02-13T20:34:58.198Z,97.52
2023-02-13T20:37:18.698Z,98.60
2023-02-13T20:39:51.558Z,97.74
2023-02-13T20:42:30.217Z,98.12
2023-02-13T20:45:01.187Z,97.15
2023-02-13T20:47:37.809Z,97.15
2023-02-13T20:50:07.518Z,97.82
2023-02-13T20:52:49.363Z,97.72
2023-02-13T20:55:24.115Z,97.57
2023-02-13T20:57:57.352Z,98.24
2023-02-13T21:00:28.176Z,98.31
2023-02-13T21:03:01.388Z,99.37
2023-02-13T21:05:33.762Z,99.00
2023-02-13T21:08:11.502Z,99.20
2023-02-13T21:10:42.048Z,98.67
2023-02-13T21:13:13.107Z,98.97
2023-02-13T21:15:44.227Z,100.00
2023-02-13T21:18:21.296Z,100.00
2023-02-13T21:20:51.551Z,100.00
2023-02-13T21:23:24.989Z,100.00
2023-02-13T21:25:58.587Z,100.00
2023-02-13T21:28:29.014Z,100.00
2023-02-13T21:31:01.766Z,100.00
2023-02-13T21:33:33.970Z,100.00
2023-02-13T21:36:13.951Z,100.00
2023-02-13T21:38:47.234Z,100.00
2023-02-13T21:41:19.070Z,100.00
2023-02-13T21:43:52.871Z,100.00
2023-02-13T21:46:28.804Z,100.00
2023-02-13T21:49:01.985Z,100.00
2023-02-13T21:51:35.540Z,100.00
2023-02-13T21:54:08.748Z,100.00
2023-02-13T21:56:42.243Z,100.00
2023-02-13T21:59:17.728Z,100.00
2023-02-13T22:01:49.915Z,100.00
2023-02-13T22:04:20.632Z,100.00
2023-02-13T22:06:53.099Z,100.00
2023-02-13T22:09:24.155Z,100.00
2023-02-13T22:11:54.887Z,100.00
2023-02-13T22:14:26.696Z,100.00
2023-02-13T22:16:58.883Z,100.00
2023-02-13T22:19:30.772Z,100.00
2023-02-13T22:22:01.087Z,100.00
2023-02-13T22:24:31.820Z,100.00
2023-02-13T22:27:02.903Z,100.00
2023-02-13T22:35:34.408Z,99.75
2023-02-13T22:38:04.924Z,100.00
2023-02-13T22:40:37.766Z,100.00
2023-02-13T22:43:08.992Z,99.64
2023-02-13T22:45:40.565Z,99.03
2023-02-13T22:48:10.913Z,100.00
2023-02-13T22:50:41.643Z,99.36
2023-02-13T22:53:12.300Z,99.36
2023-02-13T22:55:42.952Z,100.00
2023-02-13T22:58:13.627Z,100.00
2023-02-13T23:00:44.678Z,100.00
2023-02-13T23:03:15.296Z,100.00
2023-02-13T23:05:45.796Z,100.00
2023-02-13T23:08:16.713Z,100.00
2023-02-13T23:10:47.091Z,100.00
2023-02-13T23:13:18.056Z,100.00
2023-02-13T23:15:48.744Z,100.00
2023-02-13T23:18:19.650Z,100.00
2023-02-13T23:20:50.331Z,100.00
2023-02-13T23:23:21.417Z,100.00
2023-02-13T23:25:52.043Z,100.00
2023-02-13T23:28:22.523Z,100.00
2023-02-13T23:30:53.062Z,100.00
2023-02-13T23:33:23.634Z,100.00
2023-02-13T23:35:54.248Z,100.00
2023-02-13T23:38:24.788Z,100.00
2023-02-13T23:40:55.678Z,100.00
2023-02-13T23:43:26.123Z,100.00
2023-02-13T23:45:57.017Z,100.00
2023-02-13T23:48:27.568Z,100.00
2023-02-13T23:50:58.717Z,100.00
2023-02-13T23:53:29.603Z,100.00
2023-02-13T23:55:59.929Z,100.00
2023-02-13T23:58:33.020Z,100.00
